Etusivu
METAR-TAF:

METAR-TAF

Lentoasemat :

Havanna, Kuuba

Leveyspiiri: 22-59N, Pituuspiiri: 082-24W, korkeus merenpinnasta: 59 m

Tämänhetkinen sää

Tämä raportti tehtiin 1 tunti ja 5 minuuttia sitten, kello 00.55 UTC
tyyntä
Lämpötila 19°C
Kosteus 88%
Ilmanpaine 1014 hPa
Näkyvyys: 9000 m

METAR: MUHA 140055Z 00000KT 9000 NSC 19/17 Q1014

Aika: 21:00 (02:00 UTC)

Sääennuste

Tämä raportti tehtiin 3 tuntia ja 0 minuuttia sitten, kello 23.00 UTC
Ennuste voimassa 14. päivästä klo 00 UTC - 14. päivään klo 24 UTC
Tuuli 3 kn eri suunnista
Näkyvyys: 9000 m
Muutamia pilviä 3000 ft:n korkeudessa
Ajoittain
14. päivästä klo 08 UTC - 14. päivään klo 12 UTC
Näkyvyys: 3000 m
Osittain kattaa sumu
Tulossa
14. päivästä klo 14 UTC - 14. päivään klo 16 UTC
Tuuli 10 kn lännestä/luoteesta

TAF: MUHA 132300Z 1400/1424 VRB03KT 9000 FEW030 TEMPO 1408/1412 3000 PRFG BECMG 1414/1416 29010KT

Säähavainnot ja -ennusteet yli 4000 lentoasemalta (METAR- ja TAF-raportit).

Käytössä olevat sääasemat on merkitty karttaan keltaisilla ja punaisilla pisteillä.

Aseta hiiri pisteen päälle nähdäksesi sääaseman nimen.

Klikkaa sitten nähdäksesi säähavainnot ja -ennusteet.

Kartan vaihtaminen: klikkaa mustalla rastilla varustettuja vihreitä pisteitä, niin voit zoomata sisään; viivalla varustettua vihreää pistettä, niin voit zoomata ulos tai vihreitä nuolia, niin pääset viereisille kartoille.


METAR-TAF: